Weather at Raxaul Airport

Public forecast

Using degrees Celsius for public forecast. Weather courtesy of forecast.io.

Closest aviation weather report (METAR) to Raxaul Airport

Closest report is Tribhuvan International Airport, 52.0 nm (96.4 km) NNE. Retrieved 2020/09/29 15:20 UTC (19 minutes ago):

VNKT 291520Z 25004KT 7000 FEW020 22/21 Q1014 NOSIG

Closest aviation forecast (TAF) to Raxaul Airport

Closest forecast is Tribhuvan International Airport, 52.0 nm (96.4 km) NNE. Retrieved 2020/09/29 12:51 UTC (3 hours ago):

TAF TAF VNKT 291100Z 2912/3012 18003KT 7000 FEW015 SCT030 BECMG 3000/3002 00000KT 6000 FEW010 SCT030 BECMG 3005/3006 28007KT 8000 FEW015 SCT030 PROB30 3008/3012 5000 -TSRA FEW025CB